createdAt,value
2018-12-01T00:00:00.965Z,1.59
2018-12-01T00:02:41.328Z,1.48
2018-12-01T00:05:13.195Z,1.54
2018-12-01T00:07:47.908Z,1.52
2018-12-01T00:10:20.989Z,1.56
2018-12-01T00:12:58.519Z,1.41
2018-12-01T00:15:33.530Z,1.53
2018-12-01T00:18:03.749Z,1.49
2018-12-01T00:20:38.912Z,1.60
2018-12-01T00:23:12.119Z,1.61
2018-12-01T00:25:46.977Z,1.58
2018-12-01T00:28:23.415Z,1.38
2018-12-01T00:30:53.889Z,1.45
2018-12-01T00:33:27.284Z,1.49
2018-12-01T00:36:00.515Z,1.63
2018-12-01T00:38:41.551Z,1.60
2018-12-01T00:41:12.396Z,1.68
2018-12-01T00:43:41.816Z,1.65
2018-12-01T00:46:13.259Z,1.59
2018-12-01T00:48:44.397Z,1.36
2018-12-01T00:51:16.657Z,1.65
2018-12-01T00:53:49.874Z,1.58
2018-12-01T00:56:22.414Z,1.42
2018-12-01T00:58:53.187Z,1.61
2018-12-01T01:01:23.587Z,1.61
2018-12-01T01:03:55.715Z,1.55
2018-12-01T01:06:26.735Z,1.47
2018-12-01T01:08:57.296Z,1.53
2018-12-01T01:11:29.491Z,1.66
2018-12-01T01:14:00.898Z,1.60
2018-12-01T01:16:32.523Z,1.59
2018-12-01T01:19:02.618Z,1.76
2018-12-01T01:21:33.931Z,1.72
2018-12-01T01:24:06.869Z,1.85
2018-12-01T01:26:37.341Z,1.79
2018-12-01T01:29:07.992Z,1.81
2018-12-01T01:31:37.102Z,1.84
2018-12-01T01:34:06.081Z,1.79
2018-12-01T01:36:37.937Z,1.73
2018-12-01T01:39:08.124Z,1.75
2018-12-01T01:41:40.630Z,1.82
2018-12-01T01:44:09.389Z,1.88
2018-12-01T01:46:38.464Z,1.78
2018-12-01T01:49:11.544Z,1.83
2018-12-01T01:51:40.337Z,1.78
2018-12-01T01:54:09.814Z,1.88
2018-12-01T01:56:39.404Z,1.83
2018-12-01T01:59:10.549Z,1.82
2018-12-01T02:01:42.730Z,1.75
2018-12-01T02:04:12.254Z,1.75
2018-12-01T02:06:41.519Z,1.76
2018-12-01T02:09:10.529Z,1.75
2018-12-01T02:11:40.355Z,1.78
2018-12-01T02:14:11.257Z,1.78
2018-12-01T02:16:42.565Z,1.71
2018-12-01T02:19:12.909Z,1.74
2018-12-01T02:21:42.868Z,1.70
2018-12-01T02:24:12.248Z,1.74
2018-12-01T02:26:41.949Z,1.75
2018-12-01T02:29:12.482Z,1.70
2018-12-01T02:31:42.495Z,1.81
2018-12-01T02:34:12.005Z,1.79
2018-12-01T02:36:43.553Z,1.75
2018-12-01T02:39:16.947Z,1.76
2018-12-01T02:41:46.535Z,1.74
2018-12-01T02:44:28.039Z,1.76
2018-12-01T02:47:07.302Z,1.69
2018-12-01T02:49:37.407Z,1.79
2018-12-01T02:52:08.419Z,1.79
2018-12-01T02:54:38.242Z,1.81
2018-12-01T02:57:07.248Z,1.78
2018-12-01T02:59:36.641Z,1.81
2018-12-01T03:02:06.378Z,1.74
2018-12-01T03:04:38.131Z,1.82
2018-12-01T03:07:06.908Z,1.69
2018-12-01T03:09:36.221Z,1.82
2018-12-01T03:12:07.124Z,1.78
2018-12-01T03:14:37.860Z,1.81
2018-12-01T03:17:07.570Z,1.76
2018-12-01T03:19:37.502Z,1.67
2018-12-01T03:22:07.868Z,1.66
2018-12-01T03:24:37.582Z,1.79
2018-12-01T03:27:07.805Z,1.79
2018-12-01T03:29:37.341Z,1.86
2018-12-01T03:32:07.281Z,1.80
2018-12-01T03:34:37.127Z,1.81
2018-12-01T03:37:07.667Z,1.80
2018-12-01T03:39:37.988Z,1.88
2018-12-01T03:42:08.343Z,1.86
2018-12-01T03:44:39.387Z,1.88
2018-12-01T03:47:09.561Z,1.87
2018-12-01T03:49:39.641Z,1.82
2018-12-01T03:52:10.762Z,1.82
2018-12-01T03:54:41.359Z,1.88
2018-12-01T03:57:10.502Z,1.88
2018-12-01T03:59:39.817Z,1.86
2018-12-01T04:02:10.497Z,1.83
2018-12-01T04:04:40.024Z,1.80
2018-12-01T04:07:10.443Z,1.75
2018-12-01T04:09:41.181Z,1.81
2018-12-01T04:12:11.102Z,1.69
2018-12-01T04:14:41.227Z,1.77
2018-12-01T04:17:11.087Z,1.80
2018-12-01T04:19:41.441Z,1.86
2018-12-01T04:22:11.221Z,1.83
2018-12-01T04:24:41.195Z,1.77
2018-12-01T04:27:11.090Z,1.86
2018-12-01T04:29:40.849Z,1.94
2018-12-01T04:32:10.715Z,1.85
2018-12-01T04:34:39.665Z,1.83
2018-12-01T04:37:12.079Z,1.90
2018-12-01T04:39:47.420Z,1.82
2018-12-01T04:42:19.759Z,1.82
2018-12-01T04:44:50.113Z,1.88
2018-12-01T04:47:20.571Z,1.84
2018-12-01T04:49:51.939Z,1.98
2018-12-01T04:52:28.216Z,2.03
2018-12-01T05:04:44.718Z,2.11
2018-12-01T05:07:13.530Z,2.12
2018-12-01T05:09:43.595Z,2.07
2018-12-01T05:12:13.213Z,2.08
2018-12-01T05:14:45.703Z,2.05
2018-12-01T05:17:16.495Z,1.99
2018-12-01T05:19:51.313Z,2.03
2018-12-01T05:22:21.727Z,2.02
2018-12-01T05:24:50.583Z,1.99
2018-12-01T05:27:21.602Z,1.98
2018-12-01T05:29:51.740Z,1.97
2018-12-01T05:32:22.463Z,1.97
2018-12-01T05:34:51.972Z,1.85
2018-12-01T05:37:20.539Z,2.02
2018-12-01T05:39:50.981Z,1.99
2018-12-01T05:42:22.204Z,2.01
2018-12-01T05:44:55.502Z,1.95
2018-12-01T05:47:25.591Z,2.06
2018-12-01T05:49:59.235Z,2.08
2018-12-01T05:52:32.016Z,2.11
2018-12-01T05:55:03.919Z,2.11
2018-12-01T05:57:38.378Z,2.07
2018-12-01T06:00:13.295Z,2.09
2018-12-01T06:02:43.359Z,2.12
2018-12-01T06:05:14.119Z,2.16
2018-12-01T06:07:45.885Z,2.17
2018-12-01T06:10:17.891Z,2.18
2018-12-01T06:12:49.436Z,2.14
2018-12-01T06:15:23.958Z,2.23
2018-12-01T06:17:52.696Z,2.20
2018-12-01T06:20:25.036Z,2.20
2018-12-01T06:22:56.377Z,2.20
2018-12-01T06:25:26.502Z,2.18
2018-12-01T06:27:55.063Z,2.25
2018-12-01T06:30:24.311Z,2.08
2018-12-01T06:32:53.062Z,2.08
2018-12-01T06:35:21.850Z,2.09
2018-12-01T06:37:58.299Z,2.15
2018-12-01T06:40:29.056Z,2.27
2018-12-01T06:42:58.063Z,2.25
2018-12-01T06:45:26.527Z,2.32
2018-12-01T06:47:57.375Z,2.31
2018-12-01T06:50:27.047Z,2.34
2018-12-01T06:52:57.289Z,2.42
2018-12-01T06:55:29.523Z,2.45
2018-12-01T06:57:58.483Z,2.45
2018-12-01T07:00:28.778Z,2.38
2018-12-01T07:02:58.573Z,2.48
2018-12-01T07:05:32.217Z,2.53
2018-12-01T07:08:01.501Z,2.48
2018-12-01T07:10:30.626Z,2.40
2018-12-01T07:13:01.423Z,2.44
2018-12-01T07:15:39.198Z,2.50
2018-12-01T07:18:18.942Z,2.51
2018-12-01T07:20:49.402Z,2.61
2018-12-01T07:23:21.539Z,2.74
2018-12-01T07:25:54.052Z,2.70
2018-12-01T07:28:22.734Z,2.77
2018-12-01T07:30:52.046Z,2.87
2018-12-01T07:33:24.786Z,2.84
2018-12-01T07:35:55.614Z,2.87
2018-12-01T07:38:27.200Z,2.90
2018-12-01T07:40:56.268Z,2.90
2018-12-01T07:43:25.095Z,2.89
2018-12-01T07:45:54.085Z,2.98
2018-12-01T07:48:26.147Z,3.00
2018-12-01T07:50:55.293Z,2.87
2018-12-01T07:53:26.062Z,2.97
2018-12-01T07:55:57.471Z,2.96
2018-12-01T07:58:26.512Z,3.03
2018-12-01T08:00:55.967Z,3.09
2018-12-01T08:03:26.877Z,2.97
2018-12-01T08:05:55.496Z,3.09
2018-12-01T08:08:25.538Z,3.24
2018-12-01T08:10:55.786Z,3.20
2018-12-01T08:13:24.970Z,3.39
2018-12-01T08:15:55.572Z,3.18
2018-12-01T08:18:24.154Z,3.32
2018-12-01T08:20:56.838Z,3.27
2018-12-01T08:23:26.651Z,3.19
2018-12-01T08:25:56.974Z,3.29
2018-12-01T08:28:28.380Z,3.29
2018-12-01T08:30:58.364Z,3.33
2018-12-01T08:33:27.727Z,3.37
2018-12-01T08:35:57.805Z,3.35
2018-12-01T08:38:27.360Z,3.47
2018-12-01T08:40:58.089Z,3.40
2018-12-01T08:43:28.311Z,3.39
2018-12-01T08:45:58.023Z,3.39
2018-12-01T08:48:28.141Z,3.52
2018-12-01T08:50:57.850Z,3.34
2018-12-01T08:53:26.619Z,3.25
2018-12-01T08:55:56.417Z,3.38
2018-12-01T08:58:24.938Z,3.52
2018-12-01T09:01:27.987Z,3.47
2018-12-01T09:03:58.139Z,3.90
2018-12-01T09:06:28.157Z,4.12
2018-12-01T09:08:57.873Z,4.22
2018-12-01T09:11:27.774Z,4.25
2018-12-01T09:13:56.991Z,4.27
2018-12-01T09:16:26.582Z,4.35
2018-12-01T09:18:56.741Z,4.34
2018-12-01T09:21:26.614Z,4.37
2018-12-01T09:23:56.325Z,4.45
2018-12-01T09:26:25.359Z,4.59
2018-12-01T09:28:54.732Z,4.61
2018-12-01T09:31:24.075Z,4.60
2018-12-01T09:33:53.592Z,4.67
2018-12-01T09:36:23.436Z,4.72
2018-12-01T09:38:53.173Z,4.62
2018-12-01T09:41:23.058Z,4.64
2018-12-01T09:43:51.949Z,4.79
2018-12-01T09:46:22.426Z,5.45
2018-12-01T09:48:52.084Z,5.30
2018-12-01T09:51:22.612Z,5.93
2018-12-01T09:53:52.919Z,6.05
2018-12-01T09:56:22.594Z,6.10
2018-12-01T09:58:51.381Z,6.40
2018-12-01T10:01:22.379Z,6.37
2018-12-01T10:04:00.792Z,6.22
2018-12-01T10:06:30.539Z,7.11
2018-12-01T10:09:01.966Z,7.70
2018-12-01T10:11:32.229Z,7.33
2018-12-01T10:14:01.741Z,6.49
2018-12-01T10:16:33.720Z,6.17
2018-12-01T10:19:03.650Z,5.98
2018-12-01T10:21:33.296Z,5.77
2018-12-01T10:24:01.690Z,5.68
2018-12-01T10:26:32.663Z,5.74
2018-12-01T10:29:04.939Z,5.75
2018-12-01T10:31:35.132Z,5.91
2018-12-01T10:34:05.066Z,5.86
2018-12-01T10:36:33.826Z,6.07
2018-12-01T10:39:05.219Z,5.93
2018-12-01T10:41:34.723Z,6.00
2018-12-01T10:44:03.510Z,6.02
2018-12-01T10:46:34.020Z,6.16
2018-12-01T10:49:05.146Z,6.14
2018-12-01T10:51:35.064Z,6.26
2018-12-01T10:54:06.425Z,6.14
2018-12-01T10:56:38.771Z,6.35
2018-12-01T10:59:09.399Z,6.46
2018-12-01T11:01:44.004Z,6.64
2018-12-01T11:04:18.884Z,6.61
2018-12-01T11:06:48.489Z,6.43
2018-12-01T11:09:18.729Z,6.42
2018-12-01T11:11:49.143Z,6.53
2018-12-01T11:14:19.547Z,6.54
2018-12-01T11:16:49.896Z,6.85
2018-12-01T11:19:26.637Z,7.69
2018-12-01T11:21:57.288Z,7.57
2018-12-01T11:24:28.640Z,7.77
2018-12-01T11:26:58.908Z,7.80
2018-12-01T11:29:32.698Z,8.55
2018-12-01T11:32:03.273Z,9.00
2018-12-01T11:34:34.780Z,9.52
2018-12-01T11:37:04.556Z,10.32
2018-12-01T11:39:35.904Z,11.35
2018-12-01T11:42:08.276Z,9.31
2018-12-01T11:44:38.170Z,9.26
2018-12-01T11:47:13.697Z,8.04
2018-12-01T11:49:44.058Z,7.79
2018-12-01T11:52:13.954Z,7.64
2018-12-01T11:54:43.578Z,7.42
2018-12-01T11:57:14.483Z,7.32
2018-12-01T11:59:47.813Z,7.44
2018-12-01T12:02:18.545Z,7.23
2018-12-01T12:04:47.238Z,7.46
2018-12-01T12:07:27.279Z,7.43
2018-12-01T12:09:59.761Z,7.45
2018-12-01T12:12:29.651Z,7.31
2018-12-01T12:14:59.136Z,7.50
2018-12-01T12:17:27.604Z,7.46
2018-12-01T12:19:56.854Z,7.39
2018-12-01T12:22:26.432Z,7.54
2018-12-01T12:24:54.891Z,7.72
2018-12-01T12:27:23.360Z,7.71
2018-12-01T12:29:51.690Z,7.63
2018-12-01T12:32:20.676Z,7.59
2018-12-01T12:34:51.723Z,7.56
2018-12-01T12:37:20.511Z,7.54
2018-12-01T12:39:49.978Z,7.53
2018-12-01T12:42:19.723Z,7.52
2018-12-01T12:44:51.047Z,7.52
2018-12-01T12:47:20.157Z,7.58
2018-12-01T12:49:48.545Z,7.48
2018-12-01T12:52:17.209Z,7.32
2018-12-01T12:54:46.981Z,7.27
2018-12-01T12:57:16.870Z,7.35
2018-12-01T12:59:45.281Z,7.37
2018-12-01T13:02:14.201Z,7.39
2018-12-01T13:04:42.695Z,7.38
2018-12-01T13:07:11.683Z,7.47
2018-12-01T13:09:40.380Z,7.42
2018-12-01T13:12:09.782Z,7.46
2018-12-01T13:14:38.966Z,7.45
2018-12-01T13:17:07.881Z,7.41
2018-12-01T13:19:38.288Z,7.37
2018-12-01T13:22:07.088Z,7.43
2018-12-01T13:24:37.001Z,7.31
2018-12-01T13:27:07.121Z,7.37
2018-12-01T13:29:36.200Z,7.42
2018-12-01T13:32:05.491Z,7.49
2018-12-01T13:34:34.186Z,7.42
2018-12-01T13:37:02.890Z,7.46
2018-12-01T13:39:33.658Z,7.45
2018-12-01T13:42:02.738Z,7.50
2018-12-01T13:44:32.634Z,7.41
2018-12-01T13:47:01.621Z,7.43
2018-12-01T13:49:30.189Z,7.44
2018-12-01T13:51:59.093Z,7.33
2018-12-01T13:54:28.366Z,8.09
2018-12-01T13:56:57.357Z,8.33
2018-12-01T13:59:26.895Z,8.65
2018-12-01T14:01:59.267Z,7.81
2018-12-01T14:04:36.761Z,7.50
2018-12-01T14:07:09.524Z,7.30
2018-12-01T14:09:38.254Z,7.31
2018-12-01T14:12:11.213Z,7.23
2018-12-01T14:14:41.619Z,7.24
2018-12-01T14:17:12.350Z,7.07
2018-12-01T14:19:42.859Z,6.98
2018-12-01T14:22:13.267Z,6.95
2018-12-01T14:24:43.472Z,6.87
2018-12-01T14:27:12.749Z,6.71
2018-12-01T14:29:42.719Z,6.49
2018-12-01T14:32:12.640Z,6.66
2018-12-01T14:34:41.682Z,6.56
2018-12-01T14:37:11.661Z,6.45
2018-12-01T14:39:41.313Z,6.38
2018-12-01T14:42:10.900Z,6.27
2018-12-01T14:44:40.662Z,6.17
2018-12-01T14:47:09.282Z,6.00
2018-12-01T14:49:38.574Z,6.16
2018-12-01T14:52:08.068Z,6.04
2018-12-01T14:54:38.592Z,5.86
2018-12-01T14:57:08.191Z,5.79
2018-12-01T14:59:37.706Z,5.47
2018-12-01T15:02:07.526Z,5.49
2018-12-01T15:04:47.569Z,5.50
2018-12-01T15:07:18.032Z,5.30
2018-12-01T15:09:48.623Z,5.28
2018-12-01T15:12:19.862Z,5.24
2018-12-01T15:14:49.205Z,5.22
2018-12-01T15:17:20.314Z,5.22
2018-12-01T15:19:50.592Z,5.24
2018-12-01T15:22:19.931Z,5.21
2018-12-01T15:24:49.338Z,5.32
2018-12-01T15:27:19.279Z,5.31
2018-12-01T15:29:49.052Z,5.19
2018-12-01T15:32:19.384Z,4.86
2018-12-01T15:34:50.360Z,5.10
2018-12-01T15:37:19.930Z,5.28
2018-12-01T15:39:49.160Z,5.19
2018-12-01T15:42:19.049Z,5.18
2018-12-01T15:44:48.347Z,5.21
2018-12-01T15:47:18.471Z,4.79
2018-12-01T15:49:47.839Z,4.56
2018-12-01T15:52:18.288Z,4.59
2018-12-01T15:54:47.766Z,4.57
2018-12-01T15:57:16.785Z,4.69
2018-12-01T15:59:48.134Z,4.17
2018-12-01T16:02:18.243Z,4.45
2018-12-01T16:07:33.414Z,4.14
2018-12-01T16:10:03.147Z,4.16
2018-12-01T16:12:32.262Z,4.17
2018-12-01T16:15:01.847Z,4.29
2018-12-01T16:17:31.968Z,4.47
2018-12-01T16:20:01.571Z,4.16
2018-12-01T16:22:31.889Z,3.83
2018-12-01T16:25:01.188Z,4.17
2018-12-01T16:27:30.898Z,3.95
2018-12-01T16:30:00.651Z,4.09
2018-12-01T16:32:31.392Z,3.82
2018-12-01T16:35:10.751Z,3.76
2018-12-01T16:37:40.592Z,3.82
2018-12-01T16:40:15.319Z,4.00
2018-12-01T16:42:52.302Z,4.03
2018-12-01T16:45:26.310Z,3.85
2018-12-01T16:47:56.564Z,3.67
2018-12-01T16:50:26.513Z,3.89
2018-12-01T16:52:55.894Z,4.04
2018-12-01T16:55:25.863Z,3.99
2018-12-01T16:57:54.621Z,3.74
2018-12-01T17:00:24.955Z,3.41
2018-12-01T17:02:56.027Z,3.58
2018-12-01T17:05:27.015Z,3.83
2018-12-01T17:07:56.852Z,3.61
2018-12-01T17:10:28.517Z,3.69
2018-12-01T17:13:00.304Z,3.88
2018-12-01T17:15:30.906Z,3.72
2018-12-01T17:17:59.906Z,3.62
2018-12-01T17:20:31.844Z,3.41
2018-12-01T17:23:01.552Z,3.73
2018-12-01T17:25:31.283Z,3.83
2018-12-01T17:28:03.239Z,3.60
2018-12-01T17:30:33.646Z,3.92
2018-12-01T17:33:04.946Z,3.67
2018-12-01T17:35:33.793Z,3.82
2018-12-01T17:38:09.078Z,3.89
2018-12-01T17:41:01.754Z,3.63
2018-12-01T17:43:37.952Z,3.79
2018-12-01T17:46:11.146Z,3.78
2018-12-01T17:48:42.997Z,3.95
2018-12-01T17:51:16.494Z,3.28
2018-12-01T17:53:48.442Z,3.48
2018-12-01T17:56:18.866Z,3.97
2018-12-01T17:58:48.698Z,3.47
2018-12-01T18:01:20.041Z,3.12
2018-12-01T18:03:48.714Z,3.24
2018-12-01T18:06:18.308Z,3.13
2018-12-01T18:08:48.013Z,3.57
2018-12-01T18:11:16.826Z,2.95
2018-12-01T18:13:45.928Z,2.22
2018-12-01T18:16:15.840Z,3.41
2018-12-01T18:18:44.508Z,3.50
2018-12-01T18:21:15.675Z,3.43
2018-12-01T18:23:45.758Z,3.97
2018-12-01T18:26:19.442Z,3.97
2018-12-01T18:28:50.011Z,3.89
2018-12-01T18:31:23.689Z,3.45
2018-12-01T18:33:55.972Z,3.31
2018-12-01T18:36:25.183Z,3.62
2018-12-01T18:38:54.057Z,3.39
2018-12-01T18:41:25.265Z,3.26
2018-12-01T18:43:54.722Z,3.76
2018-12-01T18:46:25.272Z,3.41
2018-12-01T18:48:54.571Z,3.64
2018-12-01T18:51:23.328Z,3.65
2018-12-01T18:53:53.270Z,3.70
2018-12-01T18:56:26.085Z,3.16
2018-12-01T18:58:56.255Z,3.46
2018-12-01T19:01:27.606Z,3.35
2018-12-01T19:03:57.309Z,3.37
2018-12-01T19:06:25.999Z,3.32
2018-12-01T19:08:54.807Z,3.47
2018-12-01T19:11:24.599Z,3.29
2018-12-01T19:13:55.299Z,3.54
2018-12-01T19:16:24.668Z,3.28
2018-12-01T19:18:53.727Z,3.47
2018-12-01T19:21:24.562Z,3.20
2018-12-01T19:23:54.212Z,3.48
2018-12-01T19:26:22.842Z,3.29
2018-12-01T19:28:55.343Z,3.23
2018-12-01T19:31:26.331Z,3.26
2018-12-01T19:33:54.976Z,3.24
2018-12-01T19:36:25.127Z,3.22
2018-12-01T19:38:55.091Z,3.22
2018-12-01T19:41:25.371Z,3.43
2018-12-01T19:43:54.702Z,3.13
2018-12-01T19:46:25.718Z,3.12
2018-12-01T19:48:54.268Z,3.05
2018-12-01T19:51:23.211Z,3.12
2018-12-01T19:53:51.791Z,2.99
2018-12-01T19:56:21.818Z,3.34
2018-12-01T19:58:50.406Z,3.39
2018-12-01T20:01:21.058Z,3.46
2018-12-01T20:03:51.210Z,3.00
2018-12-01T20:06:20.439Z,2.98
2018-12-01T20:08:49.542Z,3.22
2018-12-01T20:11:18.756Z,3.11
2018-12-01T20:13:47.750Z,2.78
2018-12-01T20:16:35.391Z,2.88
2018-12-01T20:19:06.189Z,3.52
2018-12-01T20:21:38.612Z,3.13
2018-12-01T20:24:10.231Z,3.28
2018-12-01T20:26:43.555Z,3.01
2018-12-01T20:29:13.758Z,2.84
2018-12-01T20:31:42.672Z,2.73
2018-12-01T20:34:13.323Z,2.89
2018-12-01T20:36:46.950Z,2.96
2018-12-01T20:39:21.153Z,2.82
2018-12-01T20:41:52.036Z,3.34
2018-12-01T20:44:23.751Z,3.47
2018-12-01T20:46:52.656Z,3.38
2018-12-01T20:49:22.147Z,3.51
2018-12-01T20:51:51.448Z,3.75
2018-12-01T20:54:32.168Z,3.79
2018-12-01T20:57:04.941Z,3.79
2018-12-01T20:59:35.531Z,3.84
2018-12-01T21:02:08.081Z,3.85
2018-12-01T21:04:39.217Z,3.79
2018-12-01T21:07:09.264Z,3.90
2018-12-01T21:09:38.779Z,3.95
2018-12-01T21:12:09.924Z,3.96
2018-12-01T21:14:40.390Z,3.84
2018-12-01T21:17:10.051Z,4.01
2018-12-01T21:19:39.618Z,4.00
2018-12-01T21:22:09.854Z,4.00
2018-12-01T21:24:39.862Z,3.98
2018-12-01T21:27:10.417Z,3.99
2018-12-01T21:29:40.599Z,3.97
2018-12-01T21:32:11.371Z,3.95
2018-12-01T21:34:42.821Z,3.92
2018-12-01T21:37:12.826Z,3.88
2018-12-01T21:39:42.774Z,3.83
2018-12-01T21:42:15.198Z,3.87
2018-12-01T21:44:45.229Z,3.91
2018-12-01T21:47:15.262Z,3.85
2018-12-01T21:49:46.912Z,3.86
2018-12-01T21:52:17.472Z,3.88
2018-12-01T21:54:47.066Z,3.91
2018-12-01T21:57:17.118Z,3.95
2018-12-01T21:59:47.879Z,3.94
2018-12-01T22:02:17.154Z,3.97
2018-12-01T22:04:49.673Z,3.98
2018-12-01T22:07:20.813Z,3.94
2018-12-01T22:09:51.119Z,4.03
2018-12-01T22:12:20.863Z,3.96
2018-12-01T22:14:50.247Z,4.00
2018-12-01T22:17:18.607Z,3.93
2018-12-01T22:19:52.226Z,3.99
2018-12-01T22:22:22.099Z,3.95
2018-12-01T22:24:50.910Z,3.96
2018-12-01T22:27:21.766Z,2.10
2018-12-01T22:29:55.048Z,3.90
2018-12-01T22:32:30.900Z,3.91
2018-12-01T22:35:00.719Z,3.94
2018-12-01T22:37:30.832Z,3.90
2018-12-01T22:40:03.065Z,2.27
2018-12-01T22:42:36.160Z,3.91
2018-12-01T22:45:10.511Z,3.94
2018-12-01T22:47:39.864Z,3.94
2018-12-01T22:50:20.653Z,3.95
2018-12-01T22:52:55.305Z,3.95
2018-12-01T22:58:41.395Z,3.95
2018-12-01T23:01:18.705Z,3.95
2018-12-01T23:03:54.790Z,4.00
2018-12-01T23:06:33.050Z,4.03
2018-12-01T23:09:07.072Z,4.03
2018-12-01T23:11:41.312Z,4.07
2018-12-01T23:14:15.088Z,4.07
2018-12-01T23:16:44.681Z,4.10
2018-12-01T23:19:17.355Z,4.15
2018-12-01T23:21:46.090Z,4.20
2018-12-01T23:24:21.196Z,4.17
2018-12-01T23:26:54.498Z,4.15
2018-12-01T23:29:35.410Z,4.17
2018-12-01T23:32:10.007Z,4.19
2018-12-01T23:34:45.113Z,4.18
2018-12-01T23:37:14.431Z,4.15
2018-12-01T23:39:44.128Z,4.15
2018-12-01T23:42:17.626Z,4.13
2018-12-01T23:44:49.801Z,4.15
2018-12-01T23:47:19.176Z,4.08
2018-12-01T23:49:49.657Z,4.15
2018-12-01T23:52:23.536Z,4.20
2018-12-01T23:54:52.834Z,4.18
2018-12-01T23:57:30.330Z,4.24
